sensor_id;sensor_type;location;lat;lon;timestamp;pressure;altitude;pressure_sealevel;temperature;humidity
42603;BME280;28233;55.748;48.752;2023-06-05T00:01:02;99672.00;;;10.42;77.00
42603;BME280;28233;55.748;48.752;2023-06-05T00:03:05;99671.19;;;10.41;77.32
42603;BME280;28233;55.748;48.752;2023-06-05T00:05:08;99672.84;;;10.42;76.84
42603;BME280;28233;55.748;48.752;2023-06-05T00:07:12;99665.53;;;10.38;76.63
42603;BME280;28233;55.748;48.752;2023-06-05T00:09:15;99666.19;;;10.43;76.50
42603;BME280;28233;55.748;48.752;2023-06-05T00:11:18;99677.19;;;10.43;76.66
42603;BME280;28233;55.748;48.752;2023-06-05T00:13:21;99672.00;;;10.42;76.56
42603;BME280;28233;55.748;48.752;2023-06-05T00:15:24;99674.28;;;10.40;76.60
42603;BME280;28233;55.748;48.752;2023-06-05T00:17:27;99673.78;;;10.38;76.66
42603;BME280;28233;55.748;48.752;2023-06-05T00:19:30;99679.59;;;10.36;76.46
42603;BME280;28233;55.748;48.752;2023-06-05T00:21:33;99673.59;;;10.34;76.03
42603;BME280;28233;55.748;48.752;2023-06-05T00:23:36;99675.53;;;10.33;76.26
42603;BME280;28233;55.748;48.752;2023-06-05T00:25:39;99676.19;;;10.30;75.89
42603;BME280;28233;55.748;48.752;2023-06-05T00:27:42;99673.09;;;10.32;75.66
42603;BME280;28233;55.748;48.752;2023-06-05T00:29:45;99672.78;;;10.33;75.26
42603;BME280;28233;55.748;48.752;2023-06-05T00:31:48;99675.84;;;10.32;74.58
42603;BME280;28233;55.748;48.752;2023-06-05T00:33:51;99673.59;;;10.34;74.00
42603;BME280;28233;55.748;48.752;2023-06-05T00:35:54;99674.91;;;10.36;72.54
42603;BME280;28233;55.748;48.752;2023-06-05T00:37:57;99666.66;;;10.36;72.25
42603;BME280;28233;55.748;48.752;2023-06-05T00:40:00;99674.72;;;10.33;72.02
42603;BME280;28233;55.748;48.752;2023-06-05T00:42:07;99674.22;;;10.31;72.54
42603;BME280;28233;55.748;48.752;2023-06-05T00:44:10;99673.75;;;10.29;72.41
42603;BME280;28233;55.748;48.752;2023-06-05T00:46:14;99673.50;;;10.25;72.34
42603;BME280;28233;55.748;48.752;2023-06-05T00:48:17;99673.84;;;10.24;72.20
42603;BME280;28233;55.748;48.752;2023-06-05T00:50:21;99677.41;;;10.24;71.48
42603;BME280;28233;55.748;48.752;2023-06-05T00:52:24;99680.84;;;10.30;70.01
42603;BME280;28233;55.748;48.752;2023-06-05T00:54:28;99669.09;;;10.38;69.16
42603;BME280;28233;55.748;48.752;2023-06-05T00:56:32;99678.69;;;10.49;68.19
42603;BME280;28233;55.748;48.752;2023-06-05T00:58:38;99678.38;;;10.60;68.18
42603;BME280;28233;55.748;48.752;2023-06-05T01:00:41;99677.28;;;10.69;67.77
42603;BME280;28233;55.748;48.752;2023-06-05T01:02:44;99679.25;;;10.77;68.10
42603;BME280;28233;55.748;48.752;2023-06-05T01:04:47;99678.47;;;10.86;68.52
42603;BME280;28233;55.748;48.752;2023-06-05T01:06:50;99675.06;;;10.89;68.16
42603;BME280;28233;55.748;48.752;2023-06-05T01:08:54;99674.25;;;10.88;68.44
42603;BME280;28233;55.748;48.752;2023-06-05T01:11:01;99675.06;;;10.89;68.76
42603;BME280;28233;55.748;48.752;2023-06-05T01:13:10;99677.34;;;10.87;68.96
42603;BME280;28233;55.748;48.752;2023-06-05T01:15:18;99674.91;;;10.85;69.10
42603;BME280;28233;55.748;48.752;2023-06-05T01:17:21;99678.47;;;10.86;69.34
42603;BME280;28233;55.748;48.752;2023-06-05T01:19:27;99676.06;;;10.84;69.57
42603;BME280;28233;55.748;48.752;2023-06-05T01:21:34;99675.72;;;10.86;69.77
42603;BME280;28233;55.748;48.752;2023-06-05T01:23:38;99677.97;;;10.84;70.45
42603;BME280;28233;55.748;48.752;2023-06-05T01:25:46;99677.00;;;10.79;70.82
42603;BME280;28233;55.748;48.752;2023-06-05T01:27:54;99678.91;;;10.79;71.59
42603;BME280;28233;55.748;48.752;2023-06-05T01:30:12;99676.50;;;10.77;71.68
42603;BME280;28233;55.748;48.752;2023-06-05T01:32:49;99667.78;;;10.75;72.65
42603;BME280;28233;55.748;48.752;2023-06-05T01:34:57;99675.53;;;10.73;73.73
42603;BME280;28233;55.748;48.752;2023-06-05T01:37:01;99681.03;;;10.73;74.60
42603;BME280;28233;55.748;48.752;2023-06-05T01:39:05;99674.22;;;10.71;75.39
42603;BME280;28233;55.748;48.752;2023-06-05T01:41:10;99677.47;;;10.73;75.99
42603;BME280;28233;55.748;48.752;2023-06-05T01:43:13;99672.78;;;10.73;75.46
42603;BME280;28233;55.748;48.752;2023-06-05T01:45:18;99681.50;;;10.75;75.01
42603;BME280;28233;55.748;48.752;2023-06-05T01:47:21;99682.50;;;10.79;75.01
42603;BME280;28233;55.748;48.752;2023-06-05T01:49:24;99681.84;;;10.83;74.10
42603;BME280;28233;55.748;48.752;2023-06-05T01:51:28;99680.91;;;10.87;73.39
42603;BME280;28233;55.748;48.752;2023-06-05T01:53:31;99683.81;;;10.91;74.02
42603;BME280;28233;55.748;48.752;2023-06-05T01:55:34;99690.28;;;10.95;77.42
42603;BME280;28233;55.748;48.752;2023-06-05T01:57:41;99694.97;;;10.94;79.98
42603;BME280;28233;55.748;48.752;2023-06-05T01:59:44;99697.72;;;10.94;81.98
42603;BME280;28233;55.748;48.752;2023-06-05T02:01:48;99700.47;;;10.94;81.97
42603;BME280;28233;55.748;48.752;2023-06-05T02:03:51;99689.97;;;10.96;81.97
42603;BME280;28233;55.748;48.752;2023-06-05T02:05:56;99706.31;;;11.02;82.35
42603;BME280;28233;55.748;48.752;2023-06-05T02:07:59;99699.88;;;11.06;83.02
42603;BME280;28233;55.748;48.752;2023-06-05T02:10:09;99707.16;;;11.11;82.56
42603;BME280;28233;55.748;48.752;2023-06-05T02:12:13;99710.53;;;11.16;81.68
42603;BME280;28233;55.748;48.752;2023-06-05T02:14:17;99712.81;;;11.23;81.77
42603;BME280;28233;55.748;48.752;2023-06-05T02:16:22;99709.91;;;11.28;79.71
42603;BME280;28233;55.748;48.752;2023-06-05T02:18:26;99722.56;;;11.29;77.42
42603;BME280;28233;55.748;48.752;2023-06-05T02:20:30;99715.25;;;11.33;76.74
42603;BME280;28233;55.748;48.752;2023-06-05T02:22:34;99713.66;;;11.41;76.52
42603;BME280;28233;55.748;48.752;2023-06-05T02:24:37;99718.69;;;11.48;75.45
42603;BME280;28233;55.748;48.752;2023-06-05T02:26:40;99709.44;;;11.52;74.91
42603;BME280;28233;55.748;48.752;2023-06-05T02:28:43;99714.81;;;11.57;74.07
42603;BME280;28233;55.748;48.752;2023-06-05T02:30:46;99708.34;;;11.62;73.63
42603;BME280;28233;55.748;48.752;2023-06-05T02:32:52;99706.53;;;11.66;72.54
42603;BME280;28233;55.748;48.752;2023-06-05T02:34:59;99715.75;;;11.70;72.13
42603;BME280;28233;55.748;48.752;2023-06-05T02:37:03;99718.53;;;11.79;72.39
42603;BME280;28233;55.748;48.752;2023-06-05T02:39:06;99726.63;;;11.84;72.63
42603;BME280;28233;55.748;48.752;2023-06-05T02:41:09;99727.28;;;11.90;74.26
42603;BME280;28233;55.748;48.752;2023-06-05T02:43:12;99731.50;;;11.96;76.81
42603;BME280;28233;55.748;48.752;2023-06-05T02:45:17;99729.72;;;12.00;78.68
42603;BME280;28233;55.748;48.752;2023-06-05T02:47:19;99733.75;;;12.02;79.27
42603;BME280;28233;55.748;48.752;2023-06-05T02:49:22;99737.00;;;12.04;79.93
42603;BME280;28233;55.748;48.752;2023-06-05T02:51:25;99726.13;;;12.08;80.10
42603;BME280;28233;55.748;48.752;2023-06-05T02:53:28;99731.44;;;12.13;78.84
42603;BME280;28233;55.748;48.752;2023-06-05T02:55:31;99736.81;;;12.18;77.29
42603;BME280;28233;55.748;48.752;2023-06-05T02:57:35;99736.63;;;12.23;77.04
42603;BME280;28233;55.748;48.752;2023-06-05T02:59:44;99732.91;;;12.28;77.41
42603;BME280;28233;55.748;48.752;2023-06-05T03:01:47;99743.41;;;12.35;75.27
42603;BME280;28233;55.748;48.752;2023-06-05T03:03:52;99730.59;;;12.39;73.23
42603;BME280;28233;55.748;48.752;2023-06-05T03:05:59;99731.56;;;12.43;71.36
42603;BME280;28233;55.748;48.752;2023-06-05T03:08:06;99732.53;;;12.47;70.15
42603;BME280;28233;55.748;48.752;2023-06-05T03:10:11;99733.63;;;12.55;70.02
42603;BME280;28233;55.748;48.752;2023-06-05T03:12:14;99732.31;;;12.61;69.48
42603;BME280;28233;55.748;48.752;2023-06-05T03:14:16;99737.78;;;12.69;68.65
42603;BME280;28233;55.748;48.752;2023-06-05T03:16:19;99741.50;;;12.74;67.78
42603;BME280;28233;55.748;48.752;2023-06-05T03:18:25;99739.50;;;12.83;67.62
42603;BME280;28233;55.748;48.752;2023-06-05T03:20:28;99740.97;;;12.89;67.64
42603;BME280;28233;55.748;48.752;2023-06-05T03:22:31;99744.66;;;12.93;66.89
42603;BME280;28233;55.748;48.752;2023-06-05T03:24:34;99750.81;;;12.99;64.99
42603;BME280;28233;55.748;48.752;2023-06-05T03:26:40;99748.16;;;13.02;63.74
42603;BME280;28233;55.748;48.752;2023-06-05T03:28:43;99740.53;;;13.08;63.94
42603;BME280;28233;55.748;48.752;2023-06-05T03:30:46;99750.69;;;13.16;64.34
42603;BME280;28233;55.748;48.752;2023-06-05T03:32:49;99756.31;;;13.28;64.09
42603;BME280;28233;55.748;48.752;2023-06-05T03:34:52;99764.88;;;13.36;63.01
42603;BME280;28233;55.748;48.752;2023-06-05T03:36:55;99756.75;;;13.39;61.96
42603;BME280;28233;55.748;48.752;2023-06-05T03:39:01;99760.47;;;13.43;59.62
42603;BME280;28233;55.748;48.752;2023-06-05T03:41:04;99747.28;;;13.49;57.07
42603;BME280;28233;55.748;48.752;2023-06-05T03:43:07;99757.63;;;13.52;57.17
42603;BME280;28233;55.748;48.752;2023-06-05T03:45:10;99762.16;;;13.57;58.30
42603;BME280;28233;55.748;48.752;2023-06-05T03:47:13;99752.06;;;13.61;57.92
42603;BME280;28233;55.748;48.752;2023-06-05T03:49:17;99759.34;;;13.65;58.97
42603;BME280;28233;55.748;48.752;2023-06-05T03:51:20;99763.53;;;13.71;59.67
42603;BME280;28233;55.748;48.752;2023-06-05T03:53:24;99758.25;;;13.79;60.04
42603;BME280;28233;55.748;48.752;2023-06-05T03:55:28;99758.84;;;13.84;60.50
42603;BME280;28233;55.748;48.752;2023-06-05T03:57:38;99752.00;;;13.90;61.30
42603;BME280;28233;55.748;48.752;2023-06-05T03:59:41;99751.44;;;13.97;61.17
42603;BME280;28233;55.748;48.752;2023-06-05T04:01:45;99758.72;;;14.02;62.28
42603;BME280;28233;55.748;48.752;2023-06-05T04:03:48;99751.34;;;14.06;61.76
42603;BME280;28233;55.748;48.752;2023-06-05T04:05:51;99757.03;;;14.09;59.79
42603;BME280;28233;55.748;48.752;2023-06-05T04:07:54;99757.59;;;14.15;58.97
42603;BME280;28233;55.748;48.752;2023-06-05T04:09:57;99754.50;;;14.16;62.69
42603;BME280;28233;55.748;48.752;2023-06-05T04:12:00;99756.84;;;14.27;63.29
42603;BME280;28233;55.748;48.752;2023-06-05T04:14:03;99757.88;;;14.34;60.37
42603;BME280;28233;55.748;48.752;2023-06-05T04:16:09;99755.03;;;14.43;58.20
42603;BME280;28233;55.748;48.752;2023-06-05T04:18:13;99763.13;;;14.48;57.53
42603;BME280;28233;55.748;48.752;2023-06-05T04:20:15;99756.56;;;14.53;56.80
42603;BME280;28233;55.748;48.752;2023-06-05T04:22:18;99751.78;;;14.62;54.28
42603;BME280;28233;55.748;48.752;2023-06-05T04:24:22;99754.31;;;14.67;53.40
42603;BME280;28233;55.748;48.752;2023-06-05T04:26:27;99750.88;;;14.70;51.56
42603;BME280;28233;55.748;48.752;2023-06-05T04:28:30;99749.00;;;14.74;51.53
42603;BME280;28233;55.748;48.752;2023-06-05T04:30:33;99744.41;;;14.78;49.49
42603;BME280;28233;55.748;48.752;2023-06-05T04:32:37;99745.44;;;14.86;49.95
42603;BME280;28233;55.748;48.752;2023-06-05T04:34:41;99743.28;;;14.92;49.15
42603;BME280;28233;55.748;48.752;2023-06-05T04:36:44;99743.84;;;14.97;49.61
42603;BME280;28233;55.748;48.752;2023-06-05T04:38:47;99743.97;;;15.01;50.63
42603;BME280;28233;55.748;48.752;2023-06-05T04:40:50;99754.09;;;15.09;50.84
42603;BME280;28233;55.748;48.752;2023-06-05T04:42:52;99754.56;;;15.11;49.49
42603;BME280;28233;55.748;48.752;2023-06-05T04:44:58;99754.09;;;15.09;50.76
42603;BME280;28233;55.748;48.752;2023-06-05T04:47:01;99757.00;;;15.00;50.30
42603;BME280;28233;55.748;48.752;2023-06-05T04:49:06;99749.63;;;14.92;49.18
42603;BME280;28233;55.748;48.752;2023-06-05T04:51:09;99745.91;;;14.88;48.01
42603;BME280;28233;55.748;48.752;2023-06-05T04:53:12;99742.34;;;14.88;47.95
42603;BME280;28233;55.748;48.752;2023-06-05T04:55:16;99740.19;;;14.93;46.46
42603;BME280;28233;55.748;48.752;2023-06-05T04:57:19;99744.31;;;14.99;46.05
42603;BME280;28233;55.748;48.752;2023-06-05T04:59:21;99739.81;;;15.07;45.74
42603;BME280;28233;55.748;48.752;2023-06-05T05:01:25;99732.91;;;15.13;45.87
42603;BME280;28233;55.748;48.752;2023-06-05T05:03:30;99739.69;;;15.16;44.71
42603;BME280;28233;55.748;48.752;2023-06-05T05:05:33;99734.28;;;15.19;44.82
42603;BME280;28233;55.748;48.752;2023-06-05T05:07:40;99738.41;;;15.26;43.54
42603;BME280;28233;55.748;48.752;2023-06-05T05:09:44;99741.97;;;15.26;43.93
42603;BME280;28233;55.748;48.752;2023-06-05T05:11:46;99735.41;;;15.31;42.92
42603;BME280;28233;55.748;48.752;2023-06-05T05:13:49;99737.59;;;15.37;42.51
42603;BME280;28233;55.748;48.752;2023-06-05T05:15:52;99734.22;;;15.44;41.50
42603;BME280;28233;55.748;48.752;2023-06-05T05:17:55;99739.91;;;15.48;42.20
42603;BME280;28233;55.748;48.752;2023-06-05T05:19:59;99743.69;;;15.55;41.18
42603;BME280;28233;55.748;48.752;2023-06-05T05:22:06;99743.44;;;15.60;42.52
42603;BME280;28233;55.748;48.752;2023-06-05T05:24:09;99743.97;;;15.66;41.97
42603;BME280;28233;55.748;48.752;2023-06-05T05:26:12;99752.56;;;15.73;42.26
42603;BME280;28233;55.748;48.752;2023-06-05T05:28:15;99748.63;;;15.74;41.54
42603;BME280;28233;55.748;48.752;2023-06-05T05:30:20;99755.09;;;15.78;40.50
42603;BME280;28233;55.748;48.752;2023-06-05T05:32:23;99736.50;;;15.79;40.49
42603;BME280;28233;55.748;48.752;2023-06-05T05:34:25;99754.03;;;15.83;40.75
42603;BME280;28233;55.748;48.752;2023-06-05T05:36:28;99749.38;;;15.87;40.48
42603;BME280;28233;55.748;48.752;2023-06-05T05:38:31;99744.88;;;15.95;40.60
42603;BME280;28233;55.748;48.752;2023-06-05T05:40:34;99751.75;;;16.01;40.07
42603;BME280;28233;55.748;48.752;2023-06-05T05:42:37;99754.78;;;15.96;39.05
42603;BME280;28233;55.748;48.752;2023-06-05T05:44:40;99752.34;;;15.94;38.99
42603;BME280;28233;55.748;48.752;2023-06-05T05:46:45;99756.50;;;16.00;37.89
42603;BME280;28233;55.748;48.752;2023-06-05T05:48:50;99753.84;;;16.04;37.41
42603;BME280;28233;55.748;48.752;2023-06-05T05:50:53;99754.84;;;16.12;38.44
42603;BME280;28233;55.748;48.752;2023-06-05T05:52:56;99757.69;;;16.15;39.40
42603;BME280;28233;55.748;48.752;2023-06-05T05:54:59;99753.84;;;16.20;39.64
42603;BME280;28233;55.748;48.752;2023-06-05T05:57:03;99755.31;;;16.30;39.33
42603;BME280;28233;55.748;48.752;2023-06-05T05:59:07;99753.44;;;16.34;38.75
42603;BME280;28233;55.748;48.752;2023-06-05T06:01:10;99748.63;;;16.31;39.04
42603;BME280;28233;55.748;48.752;2023-06-05T06:03:16;99753.91;;;16.36;39.11
42603;BME280;28233;55.748;48.752;2023-06-05T06:05:19;99745.13;;;16.34;38.96
42603;BME280;28233;55.748;48.752;2023-06-05T06:07:23;99744.44;;;16.37;38.65
42603;BME280;28233;55.748;48.752;2023-06-05T06:09:26;99744.44;;;16.37;39.29
42603;BME280;28233;55.748;48.752;2023-06-05T06:11:29;99750.78;;;16.37;38.87
42603;BME280;28233;55.748;48.752;2023-06-05T06:13:34;99748.66;;;16.46;38.54
42603;BME280;28233;55.748;48.752;2023-06-05T06:15:37;99753.75;;;16.44;36.58
42603;BME280;28233;55.748;48.752;2023-06-05T06:17:41;99755.22;;;16.26;36.09
42603;BME280;28233;55.748;48.752;2023-06-05T06:19:44;99745.75;;;16.27;36.77
42603;BME280;28233;55.748;48.752;2023-06-05T06:21:46;99748.47;;;16.39;37.16
42603;BME280;28233;55.748;48.752;2023-06-05T06:23:50;99746.16;;;16.57;39.32
42603;BME280;28233;55.748;48.752;2023-06-05T06:25:53;99745.00;;;16.74;38.78
42603;BME280;28233;55.748;48.752;2023-06-05T06:27:56;99743.03;;;16.90;38.83
42603;BME280;28233;55.748;48.752;2023-06-05T06:29:59;99749.94;;;16.97;36.68
42603;BME280;28233;55.748;48.752;2023-06-05T06:32:03;99739.03;;;16.88;36.05
42603;BME280;28233;55.748;48.752;2023-06-05T06:34:06;99750.63;;;16.62;34.61
42603;BME280;28233;55.748;48.752;2023-06-05T06:36:15;99741.66;;;16.53;35.10
42603;BME280;28233;55.748;48.752;2023-06-05T06:38:20;99742.13;;;16.55;34.99
42603;BME280;28233;55.748;48.752;2023-06-05T06:40:23;99747.31;;;16.56;35.18
42603;BME280;28233;55.748;48.752;2023-06-05T06:42:26;99738.63;;;16.74;35.03
42603;BME280;28233;55.748;48.752;2023-06-05T06:44:32;99730.97;;;16.99;36.75
42603;BME280;28233;55.748;48.752;2023-06-05T06:46:34;99727.41;;;17.33;37.27
42603;BME280;28233;55.748;48.752;2023-06-05T06:48:38;99713.75;;;17.44;35.52
42603;BME280;28233;55.748;48.752;2023-06-05T06:50:41;99717.28;;;17.61;37.96
42603;BME280;28233;55.748;48.752;2023-06-05T06:52:44;99725.13;;;17.74;35.29
42603;BME280;28233;55.748;48.752;2023-06-05T06:54:47;99714.81;;;17.75;36.16
42603;BME280;28233;55.748;48.752;2023-06-05T06:56:51;99722.22;;;17.87;36.03
42603;BME280;28233;55.748;48.752;2023-06-05T06:58:54;99715.41;;;18.04;36.13
42603;BME280;28233;55.748;48.752;2023-06-05T07:00:58;99715.94;;;18.09;36.46
42603;BME280;28233;55.748;48.752;2023-06-05T07:03:03;99712.84;;;18.14;36.58
42603;BME280;28233;55.748;48.752;2023-06-05T07:05:07;99709.66;;;17.93;36.07
42603;BME280;28233;55.748;48.752;2023-06-05T07:07:11;99718.63;;;17.67;36.08
42603;BME280;28233;55.748;48.752;2023-06-05T07:09:15;99721.59;;;17.78;36.33
42603;BME280;28233;55.748;48.752;2023-06-05T07:11:18;99729.84;;;17.90;35.97
42603;BME280;28233;55.748;48.752;2023-06-05T07:13:20;99718.00;;;17.93;36.03
42603;BME280;28233;55.748;48.752;2023-06-05T07:15:23;99712.28;;;17.86;36.51
42603;BME280;28233;55.748;48.752;2023-06-05T07:17:26;99712.13;;;17.98;37.27
42603;BME280;28233;55.748;48.752;2023-06-05T07:19:32;99708.19;;;17.99;35.97
42603;BME280;28233;55.748;48.752;2023-06-05T07:21:36;99722.09;;;17.99;36.51
42603;BME280;28233;55.748;48.752;2023-06-05T07:23:40;99712.44;;;17.93;35.85
42603;BME280;28233;55.748;48.752;2023-06-05T07:25:44;99711.69;;;17.96;36.15
42603;BME280;28233;55.748;48.752;2023-06-05T07:27:48;99716.53;;;17.99;35.83
42603;BME280;28233;55.748;48.752;2023-06-05T07:29:50;99711.53;;;17.89;35.81
42603;BME280;28233;55.748;48.752;2023-06-05T07:31:56;99707.75;;;17.97;37.61
42603;BME280;28233;55.748;48.752;2023-06-05T07:33:59;99707.38;;;17.99;36.96
42603;BME280;28233;55.748;48.752;2023-06-05T07:36:02;99699.53;;;17.85;35.93
42603;BME280;28233;55.748;48.752;2023-06-05T07:38:05;99701.34;;;17.77;35.93
42603;BME280;28233;55.748;48.752;2023-06-05T07:40:08;99706.47;;;17.75;36.50
42603;BME280;28233;55.748;48.752;2023-06-05T07:42:11;99703.59;;;17.87;36.83
42603;BME280;28233;55.748;48.752;2023-06-05T07:44:17;99703.44;;;18.00;35.68
42603;BME280;28233;55.748;48.752;2023-06-05T07:46:21;99696.78;;;18.04;35.82
42603;BME280;28233;55.748;48.752;2023-06-05T07:48:23;99686.59;;;18.12;35.77
42603;BME280;28233;55.748;48.752;2023-06-05T07:50:26;99699.81;;;18.19;35.80
42603;BME280;28233;55.748;48.752;2023-06-05T07:52:31;99689.69;;;18.30;35.71
42603;BME280;28233;55.748;48.752;2023-06-05T07:54:34;99697.00;;;18.38;34.69
42603;BME280;28233;55.748;48.752;2023-06-05T07:56:40;99700.13;;;18.36;33.65
42603;BME280;28233;55.748;48.752;2023-06-05T07:58:43;99691.44;;;18.38;34.30
42603;BME280;28233;55.748;48.752;2023-06-05T08:00:46;99693.34;;;18.57;35.11
42603;BME280;28233;55.748;48.752;2023-06-05T08:02:50;99685.19;;;18.68;34.67
42603;BME280;28233;55.748;48.752;2023-06-05T08:04:53;99683.88;;;18.62;34.71
42603;BME280;28233;55.748;48.752;2023-06-05T08:06:56;99683.13;;;18.65;34.49
42603;BME280;28233;55.748;48.752;2023-06-05T08:08:59;99673.94;;;18.61;34.30
42603;BME280;28233;55.748;48.752;2023-06-05T08:11:03;99677.63;;;18.68;35.32
42603;BME280;28233;55.748;48.752;2023-06-05T08:13:06;99676.66;;;18.80;34.65
42603;BME280;28233;55.748;48.752;2023-06-05T08:15:10;99686.47;;;18.74;34.15
42603;BME280;28233;55.748;48.752;2023-06-05T08:17:12;99681.22;;;18.69;34.61
42603;BME280;28233;55.748;48.752;2023-06-05T08:19:15;99675.22;;;18.67;34.40
42603;BME280;28233;55.748;48.752;2023-06-05T08:21:18;99681.47;;;18.83;34.87
42603;BME280;28233;55.748;48.752;2023-06-05T08:23:21;99682.91;;;19.00;34.72
42603;BME280;28233;55.748;48.752;2023-06-05T08:25:24;99678.47;;;18.95;34.93
42603;BME280;28233;55.748;48.752;2023-06-05T08:27:27;99674.16;;;18.98;35.74
42603;BME280;28233;55.748;48.752;2023-06-05T08:29:30;99680.25;;;19.07;34.80
42603;BME280;28233;55.748;48.752;2023-06-05T08:31:33;99670.56;;;18.97;34.27
42603;BME280;28233;55.748;48.752;2023-06-05T08:33:37;99668.63;;;19.01;34.84
42603;BME280;28233;55.748;48.752;2023-06-05T08:35:41;99662.31;;;19.05;35.04
42603;BME280;28233;55.748;48.752;2023-06-05T08:37:44;99667.56;;;18.83;34.03
42603;BME280;28233;55.748;48.752;2023-06-05T08:39:47;99669.59;;;18.63;34.32
42603;BME280;28233;55.748;48.752;2023-06-05T08:41:51;99667.66;;;18.90;34.76
42603;BME280;28233;55.748;48.752;2023-06-05T08:43:54;99669.63;;;19.16;34.77
42603;BME280;28233;55.748;48.752;2023-06-05T08:45:58;99676.78;;;19.44;34.29
42603;BME280;28233;55.748;48.752;2023-06-05T08:48:01;99665.28;;;19.46;34.20
42603;BME280;28233;55.748;48.752;2023-06-05T08:50:06;99660.91;;;19.48;33.37
42603;BME280;28233;55.748;48.752;2023-06-05T08:52:11;99668.06;;;19.46;33.61
42603;BME280;28233;55.748;48.752;2023-06-05T08:54:17;99663.75;;;19.52;33.45
42603;BME280;28233;55.748;48.752;2023-06-05T08:56:20;99663.34;;;19.50;32.68
42603;BME280;28233;55.748;48.752;2023-06-05T08:58:24;99665.91;;;19.65;33.32
42603;BME280;28233;55.748;48.752;2023-06-05T09:00:26;99663.03;;;19.89;33.08
42603;BME280;28233;55.748;48.752;2023-06-05T09:02:29;99662.00;;;20.04;32.54
42603;BME280;28233;55.748;48.752;2023-06-05T09:04:32;99652.88;;;20.07;33.33
42603;BME280;28233;55.748;48.752;2023-06-05T09:06:35;99659.28;;;20.11;33.00
42603;BME280;28233;55.748;48.752;2023-06-05T09:08:38;99661.88;;;19.93;32.66
42603;BME280;28233;55.748;48.752;2023-06-05T09:10:41;99648.88;;;19.71;32.41
42603;BME280;28233;55.748;48.752;2023-06-05T09:12:57;99655.28;;;19.71;32.66
42603;BME280;28233;55.748;48.752;2023-06-05T09:15:21;99660.56;;;19.23;32.67
42603;BME280;28233;55.748;48.752;2023-06-05T09:17:24;99651.06;;;18.97;33.28
42603;BME280;28233;55.748;48.752;2023-06-05T09:19:38;99660.59;;;18.96;32.95
42603;BME280;28233;55.748;48.752;2023-06-05T09:21:52;99652.47;;;18.84;32.93
42603;BME280;28233;55.748;48.752;2023-06-05T09:26:17;99663.75;;;18.72;33.30
42603;BME280;28233;55.748;48.752;2023-06-05T09:28:22;99657.34;;;18.68;33.12
42603;BME280;28233;55.748;48.752;2023-06-05T09:30:25;99659.66;;;18.39;32.79
42603;BME280;28233;55.748;48.752;2023-06-05T09:32:28;99644.56;;;18.17;32.76
42603;BME280;28233;55.748;48.752;2023-06-05T09:34:34;99653.13;;;18.08;33.02
42603;BME280;28233;55.748;48.752;2023-06-05T09:36:46;99653.91;;;18.28;32.99
42603;BME280;28233;55.748;48.752;2023-06-05T09:38:49;99656.25;;;18.49;33.57
42603;BME280;28233;55.748;48.752;2023-06-05T09:43:15;99645.59;;;19.05;33.61
42603;BME280;28233;55.748;48.752;2023-06-05T09:45:19;99641.59;;;19.32;32.97
42603;BME280;28233;55.748;48.752;2023-06-05T09:47:21;99634.66;;;19.49;33.79
42603;BME280;28233;55.748;48.752;2023-06-05T09:49:30;99639.75;;;19.74;33.09
42603;BME280;28233;55.748;48.752;2023-06-05T09:51:33;99637.22;;;19.65;32.62
42603;BME280;28233;55.748;48.752;2023-06-05T09:53:50;99633.50;;;19.84;33.36
42603;BME280;28233;55.748;48.752;2023-06-05T09:55:53;99628.56;;;20.08;34.66
42603;BME280;28233;55.748;48.752;2023-06-05T09:57:57;99635.47;;;20.21;34.47
42603;BME280;28233;55.748;48.752;2023-06-05T10:00:11;99637.13;;;20.29;31.36
42603;BME280;28233;55.748;48.752;2023-06-05T10:02:19;99638.16;;;20.10;31.45
42603;BME280;28233;55.748;48.752;2023-06-05T10:04:28;99636.78;;;19.93;31.76
42603;BME280;28233;55.748;48.752;2023-06-05T10:06:32;99630.78;;;19.91;31.79
42603;BME280;28233;55.748;48.752;2023-06-05T10:08:35;99632.63;;;20.17;32.26
42603;BME280;28233;55.748;48.752;2023-06-05T10:10:39;99626.09;;;20.43;31.77
42603;BME280;28233;55.748;48.752;2023-06-05T10:12:42;99623.91;;;20.63;33.06
42603;BME280;28233;55.748;48.752;2023-06-05T10:14:47;99623.09;;;20.63;30.96
42603;BME280;28233;55.748;48.752;2023-06-05T10:16:51;99620.31;;;20.63;31.21
42603;BME280;28233;55.748;48.752;2023-06-05T10:18:55;99623.56;;;20.72;31.20
42603;BME280;28233;55.748;48.752;2023-06-05T10:21:02;99616.06;;;20.83;32.44
42603;BME280;28233;55.748;48.752;2023-06-05T10:23:05;99611.78;;;21.00;31.14
42603;BME280;28233;55.748;48.752;2023-06-05T10:25:10;99615.25;;;20.79;30.76
42603;BME280;28233;55.748;48.752;2023-06-05T10:27:38;99615.22;;;20.76;30.25
42603;BME280;28233;55.748;48.752;2023-06-05T10:34:43;99618.00;;;20.76;30.78
42603;BME280;28233;55.748;48.752;2023-06-05T10:39:32;99600.75;;;21.29;30.74
42603;BME280;28233;55.748;48.752;2023-06-05T10:41:37;99602.13;;;21.64;31.58
42603;BME280;28233;55.748;48.752;2023-06-05T10:43:52;99590.22;;;21.99;32.19
42603;BME280;28233;55.748;48.752;2023-06-05T10:45:58;99591.47;;;22.23;33.52
42603;BME280;28233;55.748;48.752;2023-06-05T10:48:04;99582.69;;;22.39;33.46
42603;BME280;28233;55.748;48.752;2023-06-05T10:52:48;99584.59;;;21.88;29.82
42603;BME280;28233;55.748;48.752;2023-06-05T10:56:55;99582.25;;;22.33;29.58
42603;BME280;28233;55.748;48.752;2023-06-05T10:59:12;99583.84;;;22.31;28.92
42603;BME280;28233;55.748;48.752;2023-06-05T11:01:19;99576.25;;;22.46;29.30
42603;BME280;28233;55.748;48.752;2023-06-05T11:04:00;99581.47;;;22.58;27.90
42603;BME280;28233;55.748;48.752;2023-06-05T11:06:13;99576.66;;;22.58;27.64
42603;BME280;28233;55.748;48.752;2023-06-05T11:08:16;99576.66;;;22.58;28.51